This is the latest recevied weather packets stored in our database for station/object F4FEB-14. If no packets are shown the sender has not sent any weather packets the latest 10 day(s).
| Time | Temp. | Humidity | Pressure | Rain* | Wind** | Luminosity | Snow |
|---|---|---|---|---|---|---|---|
| 1777834984 | 13.33° C | 100% | 1015.7 hPa | 0 mm | - | - | - |
| 1777834683 | 13.33° C | 100% | 1015.5 hPa | 0 mm | - | - | - |
| 1777834382 | 13.89° C | 100% | 1015.4 hPa | 0 mm | - | - | - |
| 1777834081 | 13.89° C | 100% | 1015.4 hPa | 0 mm | - | - | - |
| 1777833177 | 14.44° C | 100% | 1015.3 hPa | 0 mm | - | - | - |
| 1777832876 | 14.44° C | 100% | 1015.3 hPa | 0 mm | - | - | - |
| 1777832573 | 14.44° C | 100% | 1015.2 hPa | 0 mm | - | - | - |
| 1777831971 | 14.44° C | 100% | 1015.1 hPa | 0 mm | - | - | - |
| 1777831670 | 15° C | 100% | 1015.1 hPa | 0 mm | - | - | - |
| 1777831066 | 15.56° C | 10% | - | - | - | - | - |
| 1777830763 | 16.11° C | 93% | 1015.1 hPa | 0 mm | - | - | - |
| 1777830461 | 16.67° C | 85% | 1015.1 hPa | 0 mm | - | - | - |
| 1777830159 | 17.22° C | 79% | 1015.2 hPa | 0 mm | - | - | - |
| 1777829858 | 17.22° C | 77% | 1015.3 hPa | 0 mm | - | - | - |
| 1777829256 | 17.78° C | 69% | 1015.4 hPa | 0 mm | - | - | - |
| 1777828955 | 18.89° C | 64% | 1015.4 hPa | 0 mm | - | - | - |
| 1777828652 | 19.44° C | 64% | 1015.5 hPa | 0 mm | - | - | - |
| 1777828349 | 20° C | 62% | 1015.5 hPa | 0 mm | - | - | - |
| 1777828049 | 20° C | 64% | 1015.5 hPa | 0 mm | - | - | - |
| 1777827747 | 20° C | 61% | 1015.6 hPa | 0 mm | - | - | - |
| 1777827144 | 20.56° C | 59% | 1015.7 hPa | 0 mm | - | - | - |
| 1777826541 | 20° C | 65% | 1015.9 hPa | 0 mm | - | - | - |
| 1777825638 | 18.89° C | 66% | 1015.9 hPa | 0 mm | - | - | - |
| 1777825035 | 19.44° C | 63% | 1015.8 hPa | 0 mm | - | - | - |
| 1777824731 | 18.33° C | 67% | 1015.9 hPa | 0 mm | - | - | - |
* Rain latest hour (hover to see other rain measurements)
** Current wind speed in m/s (hover to see current wind gust speed)